createdAt,value
2019-02-07T00:00:43.267Z,1011.96
2019-02-07T00:01:43.226Z,1011.91
2019-02-07T00:02:43.207Z,1011.91
2019-02-07T00:03:43.183Z,1011.86
2019-02-07T00:04:43.163Z,1011.88
2019-02-07T00:05:43.162Z,1011.91
2019-02-07T00:06:43.147Z,1011.90
2019-02-07T00:07:43.104Z,1011.88
2019-02-07T00:08:43.078Z,1011.90
2019-02-07T00:09:43.069Z,1011.78
2019-02-07T00:10:43.635Z,1011.82
2019-02-07T00:11:43.017Z,1011.81
2019-02-07T00:12:43.010Z,1011.75
2019-02-07T00:13:42.971Z,1011.73
2019-02-07T00:14:42.953Z,1011.76
2019-02-07T00:15:42.932Z,1011.76
2019-02-07T00:16:42.928Z,1011.72
2019-02-07T00:17:42.889Z,1011.71
2019-02-07T00:18:42.865Z,1011.69
2019-02-07T00:19:42.856Z,1011.70
2019-02-07T00:20:42.825Z,1011.63
2019-02-07T00:21:42.828Z,1011.61
2019-02-07T00:22:42.799Z,1011.53
2019-02-07T00:23:42.764Z,1011.54
2019-02-07T00:24:43.333Z,1011.58
2019-02-07T00:25:42.721Z,1011.48
2019-02-07T00:26:42.698Z,1011.44
2019-02-07T00:27:42.700Z,1011.48
2019-02-07T00:28:42.658Z,1011.47
2019-02-07T00:29:42.635Z,1011.43
2019-02-07T00:30:42.617Z,1011.44
2019-02-07T00:31:42.591Z,1011.44
2019-02-07T00:32:42.575Z,1011.38
2019-02-07T00:33:42.565Z,1011.35
2019-02-07T00:34:42.531Z,1011.36
2019-02-07T00:35:42.680Z,1011.36
2019-02-07T00:36:42.488Z,1011.39
2019-02-07T00:37:42.467Z,1011.35
2019-02-07T00:38:42.540Z,1011.31
2019-02-07T00:39:42.433Z,1011.31
2019-02-07T00:40:42.402Z,1011.26
2019-02-07T00:41:42.507Z,1011.25
2019-02-07T00:42:42.359Z,1011.23
2019-02-07T00:43:42.336Z,1011.18
2019-02-07T00:44:50.430Z,1011.14
2019-02-07T00:45:42.294Z,1011.13
2019-02-07T00:46:42.275Z,1011.13
2019-02-07T00:47:42.254Z,1011.07
2019-02-07T00:48:42.230Z,1011.05
2019-02-07T00:49:42.207Z,1011.01
2019-02-07T00:50:42.247Z,1010.97
2019-02-07T00:51:42.173Z,1010.93
2019-02-07T00:52:42.141Z,1010.90
2019-02-07T00:53:42.128Z,1010.92
2019-02-07T00:54:42.101Z,1010.83
2019-02-07T00:55:42.090Z,1010.87
2019-02-07T00:56:42.057Z,1010.83
2019-02-07T00:57:42.056Z,1010.84
2019-02-07T00:58:42.019Z,1010.79
2019-02-07T00:59:41.996Z,1010.84
2019-02-07T01:00:41.985Z,1010.76
2019-02-07T01:01:41.950Z,1010.66
2019-02-07T01:02:41.939Z,1010.71
2019-02-07T01:03:41.902Z,1010.71
2019-02-07T01:04:41.885Z,1010.73
2019-02-07T01:05:41.897Z,1010.69
2019-02-07T01:06:41.860Z,1010.67
2019-02-07T01:07:41.815Z,1010.66
2019-02-07T01:08:41.805Z,1010.68
2019-02-07T01:09:41.773Z,1010.60
2019-02-07T01:10:41.757Z,1010.61
2019-02-07T01:11:41.737Z,1010.52
2019-02-07T01:12:41.725Z,1010.57
2019-02-07T01:13:41.698Z,1010.52
2019-02-07T01:14:42.176Z,1010.55
2019-02-07T01:15:41.644Z,1010.58
2019-02-07T01:16:41.629Z,1010.50
2019-02-07T01:17:41.600Z,1010.44
2019-02-07T01:18:41.585Z,1010.48
2019-02-07T01:19:41.575Z,1010.45
2019-02-07T01:20:41.536Z,1010.44
2019-02-07T01:21:41.514Z,1010.39
2019-02-07T01:22:41.495Z,1010.44
2019-02-07T01:23:41.466Z,1010.38
2019-02-07T01:24:41.448Z,1010.37
2019-02-07T01:25:41.442Z,1010.35
2019-02-07T01:26:41.404Z,1010.34
2019-02-07T01:27:41.379Z,1010.30
2019-02-07T01:28:41.358Z,1010.27
2019-02-07T01:29:41.335Z,1010.28
2019-02-07T01:30:43.132Z,1010.29
2019-02-07T01:31:42.165Z,1010.28
2019-02-07T01:32:41.268Z,1010.24
2019-02-07T01:33:41.252Z,1010.19
2019-02-07T01:34:41.226Z,1010.22
2019-02-07T01:35:41.205Z,1010.22
2019-02-07T01:36:41.201Z,1010.20
2019-02-07T01:37:41.160Z,1010.18
2019-02-07T01:38:41.141Z,1010.16
2019-02-07T01:41:23.122Z,1010.17
2019-02-07T01:42:23.079Z,1010.16
2019-02-07T01:43:23.058Z,1010.14
2019-02-07T01:44:23.034Z,1010.19
2019-02-07T01:45:23.640Z,1010.16
2019-02-07T01:46:23.008Z,1010.11
2019-02-07T01:47:22.969Z,1010.08
2019-02-07T01:48:22.947Z,1010.09
2019-02-07T01:49:22.926Z,1010.05
2019-02-07T01:50:22.901Z,1010.00
2019-02-07T01:51:22.901Z,1010.00
2019-02-07T01:52:22.876Z,1009.99
2019-02-07T01:53:22.853Z,1010.00
2019-02-07T01:54:22.858Z,1009.99
2019-02-07T01:55:22.795Z,1010.00
2019-02-07T01:56:22.815Z,1009.94
2019-02-07T01:57:22.749Z,1009.92
2019-02-07T01:58:22.756Z,1009.93
2019-02-07T01:59:22.706Z,1009.94
2019-02-07T02:00:22.685Z,1009.89
2019-02-07T02:01:22.663Z,1009.84
2019-02-07T02:02:22.639Z,1009.86
2019-02-07T02:03:23.136Z,1009.85
2019-02-07T02:04:22.611Z,1009.86
2019-02-07T02:05:22.578Z,1009.86
2019-02-07T02:06:22.555Z,1009.80
2019-02-07T02:07:22.530Z,1009.80
2019-02-07T02:08:22.512Z,1009.77
2019-02-07T02:09:22.504Z,1009.75
2019-02-07T02:10:22.475Z,1009.77
2019-02-07T02:11:22.440Z,1009.74
2019-02-07T02:12:22.419Z,1009.71
2019-02-07T02:13:22.402Z,1009.70
2019-02-07T02:14:22.378Z,1009.72
2019-02-07T02:15:24.971Z,1009.67
2019-02-07T02:16:24.120Z,1009.67
2019-02-07T02:17:22.313Z,1009.65
2019-02-07T02:18:22.290Z,1009.63
2019-02-07T02:19:22.275Z,1009.60
2019-02-07T02:20:22.249Z,1009.60
2019-02-07T02:21:22.234Z,1009.54
2019-02-07T02:22:22.202Z,1009.53
2019-02-07T02:23:22.180Z,1009.47
2019-02-07T02:24:22.164Z,1009.47
2019-02-07T02:25:22.137Z,1009.44
2019-02-07T02:26:22.138Z,1009.45
2019-02-07T02:27:22.088Z,1009.45
2019-02-07T02:28:22.070Z,1009.43
2019-02-07T02:29:22.044Z,1009.42
2019-02-07T02:30:22.021Z,1009.40
2019-02-07T02:31:22.004Z,1009.36
2019-02-07T02:32:22.001Z,1009.36
2019-02-07T02:33:21.963Z,1009.32
2019-02-07T02:34:21.932Z,1009.26
2019-02-07T02:35:21.914Z,1009.28
2019-02-07T02:36:21.909Z,1009.22
2019-02-07T02:37:21.914Z,1009.23
2019-02-07T02:38:21.844Z,1009.22
2019-02-07T02:39:21.825Z,1009.22
2019-02-07T02:40:21.802Z,1009.18
2019-02-07T02:41:21.782Z,1009.13
2019-02-07T02:42:21.760Z,1009.08
2019-02-07T02:43:21.751Z,1009.11
2019-02-07T02:44:21.713Z,1009.04
2019-02-07T02:45:21.697Z,1009.03
2019-02-07T02:46:21.680Z,1009.02
2019-02-07T02:47:21.652Z,1008.94
2019-02-07T02:48:21.644Z,1008.93
2019-02-07T02:49:21.602Z,1008.94
2019-02-07T02:50:21.584Z,1008.95
2019-02-07T02:51:21.561Z,1008.83
2019-02-07T02:52:21.537Z,1008.78
2019-02-07T02:53:21.513Z,1008.75
2019-02-07T02:54:21.512Z,1008.79
2019-02-07T02:55:21.468Z,1008.69
2019-02-07T02:56:21.454Z,1008.69
2019-02-07T02:57:21.424Z,1008.64
2019-02-07T03:00:03.632Z,1008.59
2019-02-07T03:01:03.593Z,1008.51
2019-02-07T03:02:03.649Z,1008.47
2019-02-07T03:03:03.542Z,1008.49
2019-02-07T03:04:03.521Z,1008.55
2019-02-07T03:05:03.495Z,1008.51
2019-02-07T03:06:03.507Z,1008.50
2019-02-07T03:07:03.454Z,1008.53
2019-02-07T03:08:03.437Z,1008.52
2019-02-07T03:09:03.411Z,1008.49
2019-02-07T03:10:03.385Z,1008.44
2019-02-07T03:11:03.364Z,1008.46
2019-02-07T03:12:03.353Z,1008.48
2019-02-07T03:13:03.367Z,1008.50
2019-02-07T03:14:03.314Z,1008.46
2019-02-07T03:15:03.275Z,1008.43
2019-02-07T03:16:03.256Z,1008.42
2019-02-07T03:17:03.253Z,1008.37
2019-02-07T03:18:03.210Z,1008.38
2019-02-07T03:19:03.187Z,1008.36
2019-02-07T03:20:03.167Z,1008.35
2019-02-07T03:21:03.143Z,1008.30
2019-02-07T03:22:03.256Z,1008.30
2019-02-07T03:23:03.095Z,1008.29
2019-02-07T03:24:03.077Z,1008.25
2019-02-07T03:25:03.051Z,1008.23
2019-02-07T03:26:03.030Z,1008.23
2019-02-07T03:27:03.030Z,1008.19
2019-02-07T03:28:02.985Z,1008.14
2019-02-07T03:29:02.976Z,1008.18
2019-02-07T03:30:02.951Z,1008.14
2019-02-07T03:31:02.922Z,1008.11
2019-02-07T03:32:02.894Z,1008.08
2019-02-07T03:33:02.905Z,1008.11
2019-02-07T03:34:02.854Z,1008.08
2019-02-07T03:35:02.831Z,1008.06
2019-02-07T03:36:02.808Z,1008.03
2019-02-07T03:37:02.786Z,1007.98
2019-02-07T03:38:02.770Z,1007.99
2019-02-07T03:39:02.757Z,1007.97
2019-02-07T03:40:02.720Z,1007.99
2019-02-07T03:41:02.695Z,1007.94
2019-02-07T03:42:02.676Z,1007.95
2019-02-07T03:43:02.654Z,1007.93
2019-02-07T03:44:02.644Z,1007.91
2019-02-07T03:45:02.609Z,1007.82
2019-02-07T03:46:03.241Z,1007.86
2019-02-07T03:47:02.563Z,1007.85
2019-02-07T03:48:02.545Z,1007.78
2019-02-07T03:49:02.551Z,1007.82
2019-02-07T03:50:02.497Z,1007.78
2019-02-07T03:51:02.477Z,1007.72
2019-02-07T03:52:02.457Z,1007.69
2019-02-07T03:53:02.436Z,1007.66
2019-02-07T03:54:02.421Z,1007.73
2019-02-07T03:55:02.410Z,1007.63
2019-02-07T03:56:02.386Z,1007.63
2019-02-07T03:57:02.342Z,1007.61
2019-02-07T03:58:02.323Z,1007.65
2019-02-07T03:59:02.300Z,1007.70
2019-02-07T04:00:02.281Z,1007.64
2019-02-07T04:01:02.250Z,1007.66
2019-02-07T04:02:02.250Z,1007.58
2019-02-07T04:03:02.210Z,1007.60
2019-02-07T04:04:02.184Z,1007.60
2019-02-07T04:05:02.178Z,1007.54
2019-02-07T04:06:02.138Z,1007.51
2019-02-07T04:07:02.120Z,1007.59
2019-02-07T04:08:02.115Z,1007.55
2019-02-07T04:09:02.076Z,1007.53
2019-02-07T04:10:02.057Z,1007.52
2019-02-07T04:11:02.031Z,1007.51
2019-02-07T04:12:02.025Z,1007.41
2019-02-07T04:13:01.987Z,1007.41
2019-02-07T04:14:01.973Z,1007.36
2019-02-07T04:15:01.964Z,1007.34
2019-02-07T04:16:01.918Z,1007.34
2019-02-07T04:17:01.900Z,1007.34
2019-02-07T04:18:01.897Z,1007.40
2019-02-07T04:19:01.856Z,1007.36
2019-02-07T04:20:01.997Z,1007.32
2019-02-07T04:21:01.824Z,1007.37
2019-02-07T04:22:01.786Z,1007.36
2019-02-07T04:23:01.771Z,1007.28
2019-02-07T04:24:01.752Z,1007.33
2019-02-07T04:25:01.727Z,1007.27
2019-02-07T04:26:01.721Z,1007.23
2019-02-07T04:27:01.688Z,1007.25
2019-02-07T04:28:01.676Z,1007.23
2019-02-07T04:29:01.637Z,1007.20
2019-02-07T04:30:01.615Z,1007.25
2019-02-07T04:31:01.591Z,1007.23
2019-02-07T04:32:01.566Z,1007.19
2019-02-07T04:33:01.572Z,1007.15
2019-02-07T04:34:01.550Z,1007.19
2019-02-07T04:35:01.500Z,1007.22
2019-02-07T04:36:01.482Z,1007.16
2019-02-07T04:37:01.461Z,1007.11
2019-02-07T04:38:02.192Z,1007.11
2019-02-07T04:39:01.413Z,1007.09
2019-02-07T04:40:01.419Z,1007.07
2019-02-07T04:41:01.371Z,1007.07
2019-02-07T04:42:01.360Z,1007.01
2019-02-07T04:43:01.350Z,1007.00
2019-02-07T04:44:01.306Z,1007.00
2019-02-07T04:45:01.288Z,1006.99
2019-02-07T04:46:01.278Z,1006.99
2019-02-07T04:47:01.240Z,1006.94
2019-02-07T04:48:01.219Z,1006.97
2019-02-07T04:49:01.201Z,1006.89
2019-02-07T04:50:01.201Z,1006.87
2019-02-07T04:51:01.153Z,1006.89
2019-02-07T04:52:01.141Z,1006.96
2019-02-07T04:53:01.108Z,1006.88
2019-02-07T04:54:01.088Z,1006.88
2019-02-07T04:55:01.079Z,1006.82
2019-02-07T04:56:01.038Z,1006.66
2019-02-07T04:57:01.040Z,1006.83
2019-02-07T04:58:00.997Z,1006.76
2019-02-07T04:59:00.983Z,1006.68
2019-02-07T05:00:01.040Z,1006.70
2019-02-07T05:01:00.944Z,1006.72
2019-02-07T05:02:00.940Z,1006.66
2019-02-07T05:03:00.888Z,1006.64
2019-02-07T05:04:00.870Z,1006.60
2019-02-07T05:05:00.847Z,1006.59
2019-02-07T05:06:00.823Z,1006.52
2019-02-07T05:07:00.799Z,1006.53
2019-02-07T05:08:00.813Z,1006.54
2019-02-07T05:09:00.765Z,1006.49
2019-02-07T05:10:00.739Z,1006.50
2019-02-07T05:11:00.717Z,1006.51
2019-02-07T05:12:00.695Z,1006.45
2019-02-07T05:13:00.666Z,1006.48
2019-02-07T05:14:00.665Z,1006.44
2019-02-07T05:15:00.625Z,1006.47
2019-02-07T05:16:00.616Z,1006.41
2019-02-07T05:17:00.586Z,1006.44
2019-02-07T05:18:00.580Z,1006.41
2019-02-07T05:19:00.587Z,1006.45
2019-02-07T05:20:00.524Z,1006.37
2019-02-07T05:21:00.498Z,1006.42
2019-02-07T05:22:00.475Z,1006.31
2019-02-07T05:23:00.453Z,1006.38
2019-02-07T05:24:00.434Z,1006.39
2019-02-07T05:25:00.428Z,1006.32
2019-02-07T05:26:00.388Z,1006.26
2019-02-07T05:27:00.370Z,1006.34
2019-02-07T05:28:00.344Z,1006.26
2019-02-07T05:29:00.318Z,1006.27
2019-02-07T05:30:00.326Z,1006.23
2019-02-07T05:31:00.286Z,1006.24
2019-02-07T05:32:00.260Z,1006.19
2019-02-07T05:33:00.236Z,1006.20
2019-02-07T05:34:00.234Z,1006.21
2019-02-07T05:35:00.514Z,1006.19
2019-02-07T05:36:00.181Z,1006.18
2019-02-07T05:37:00.157Z,1006.13
2019-02-07T05:38:00.130Z,1006.17
2019-02-07T05:39:00.106Z,1006.05
2019-02-07T05:40:00.392Z,1006.03
2019-02-07T05:41:00.066Z,1005.98
2019-02-07T05:42:00.041Z,1006.02
2019-02-07T05:43:00.016Z,1005.96
2019-02-07T05:43:59.999Z,1005.91
2019-02-07T05:45:00.015Z,1005.93
2019-02-07T05:45:59.953Z,1005.96
2019-02-07T05:46:59.933Z,1005.91
2019-02-07T05:47:59.907Z,1005.92
2019-02-07T05:48:59.887Z,1005.88
2019-02-07T05:49:59.892Z,1005.83
2019-02-07T05:50:59.854Z,1005.79
2019-02-07T05:51:59.830Z,1005.79
2019-02-07T05:52:59.832Z,1005.77
2019-02-07T05:53:59.782Z,1005.79
2019-02-07T05:54:59.762Z,1005.76
2019-02-07T05:55:59.735Z,1005.76
2019-02-07T05:56:59.729Z,1005.78
2019-02-07T05:58:00.664Z,1005.75
2019-02-07T05:58:59.702Z,1005.74
2019-02-07T05:59:59.644Z,1005.77
2019-02-07T06:00:59.626Z,1005.73
2019-02-07T06:01:59.599Z,1005.71
2019-02-07T06:03:00.166Z,1005.64
2019-02-07T06:03:59.562Z,1005.62
2019-02-07T06:04:59.573Z,1005.62
2019-02-07T06:05:59.526Z,1005.61
2019-02-07T06:06:59.494Z,1005.59
2019-02-07T06:07:59.473Z,1005.63
2019-02-07T06:08:59.458Z,1005.61
2019-02-07T06:09:59.451Z,1005.59
2019-02-07T06:10:59.409Z,1005.63
2019-02-07T06:11:59.385Z,1005.63
2019-02-07T06:12:59.364Z,1005.59
2019-02-07T06:13:59.416Z,1005.66
2019-02-07T06:14:59.328Z,1005.58
2019-02-07T06:15:59.317Z,1005.61
2019-02-07T06:17:02.682Z,1005.62
2019-02-07T06:17:59.259Z,1005.65
2019-02-07T06:18:59.234Z,1005.64
2019-02-07T06:19:59.217Z,1005.60
2019-02-07T06:20:59.196Z,1005.56
2019-02-07T06:21:59.178Z,1005.55
2019-02-07T06:22:59.170Z,1005.56
2019-02-07T06:23:59.134Z,1005.56
2019-02-07T06:24:59.105Z,1005.56
2019-02-07T06:25:59.106Z,1005.50
2019-02-07T06:26:59.082Z,1005.55
2019-02-07T06:27:59.041Z,1005.51
2019-02-07T06:28:59.015Z,1005.51
2019-02-07T06:29:59.005Z,1005.53
2019-02-07T06:30:58.971Z,1005.52
2019-02-07T06:31:58.985Z,1005.56
2019-02-07T06:32:58.937Z,1005.52
2019-02-07T06:33:58.915Z,1005.52
2019-02-07T06:34:58.890Z,1005.53
2019-02-07T06:35:58.868Z,1005.54
2019-02-07T06:36:58.878Z,1005.57
2019-02-07T06:37:58.828Z,1005.49
2019-02-07T06:38:58.802Z,1005.45
2019-02-07T06:39:58.781Z,1005.48
2019-02-07T06:40:58.757Z,1005.49
2019-02-07T06:41:58.736Z,1005.46
2019-02-07T06:42:58.735Z,1005.40
2019-02-07T06:43:58.697Z,1005.46
2019-02-07T06:44:58.674Z,1005.46
2019-02-07T06:45:58.653Z,1005.45
2019-02-07T06:46:58.630Z,1005.43
2019-02-07T06:47:58.626Z,1005.40
2019-02-07T06:48:58.589Z,1005.38
2019-02-07T06:49:58.568Z,1005.43
2019-02-07T06:50:58.547Z,1005.35
2019-02-07T06:51:58.546Z,1005.34
2019-02-07T06:52:58.504Z,1005.43
2019-02-07T06:53:58.477Z,1005.40
2019-02-07T06:54:58.480Z,1005.41
2019-02-07T06:55:58.438Z,1005.40
2019-02-07T06:56:58.417Z,1005.39
2019-02-07T06:57:58.408Z,1005.36
2019-02-07T06:58:58.398Z,1005.34
2019-02-07T06:59:58.361Z,1005.33
2019-02-07T07:00:58.329Z,1005.29
2019-02-07T07:01:58.308Z,1005.39
2019-02-07T07:02:58.295Z,1005.38
2019-02-07T07:03:58.287Z,1005.36
2019-02-07T07:04:58.244Z,1005.31
2019-02-07T07:05:58.226Z,1005.36
2019-02-07T07:06:58.201Z,1005.33
2019-02-07T07:07:58.182Z,1005.34
2019-02-07T07:08:58.158Z,1005.35
2019-02-07T07:09:58.153Z,1005.28
2019-02-07T07:10:58.123Z,1005.30
2019-02-07T07:11:58.095Z,1005.25
2019-02-07T07:12:58.072Z,1005.29
2019-02-07T07:13:58.053Z,1005.31
2019-02-07T07:14:58.049Z,1005.29
2019-02-07T07:15:58.011Z,1005.29
2019-02-07T07:16:57.990Z,1005.27
2019-02-07T07:17:57.969Z,1005.27
2019-02-07T07:18:57.947Z,1005.27
2019-02-07T07:19:57.942Z,1005.30
2019-02-07T07:20:59.533Z,1005.30
2019-02-07T07:21:57.879Z,1005.32
2019-02-07T07:22:57.860Z,1005.26
2019-02-07T07:23:57.834Z,1005.31
2019-02-07T07:24:57.818Z,1005.31
2019-02-07T07:25:57.812Z,1005.29
2019-02-07T07:26:57.787Z,1005.29
2019-02-07T07:27:57.753Z,1005.29
2019-02-07T07:28:57.732Z,1005.25
2019-02-07T07:29:57.723Z,1005.28
2019-02-07T07:30:57.690Z,1005.26
2019-02-07T07:31:57.685Z,1005.29
2019-02-07T07:32:57.643Z,1005.35
2019-02-07T07:33:57.627Z,1005.34
2019-02-07T07:34:57.605Z,1005.36
2019-02-07T07:35:58.247Z,1005.35
2019-02-07T07:36:57.573Z,1005.36
2019-02-07T07:37:57.543Z,1005.34
2019-02-07T07:38:57.519Z,1005.39
2019-02-07T07:39:57.501Z,1005.39
2019-02-07T07:40:57.472Z,1005.41
2019-02-07T07:41:57.473Z,1005.40
2019-02-07T07:42:57.431Z,1005.38
2019-02-07T07:43:57.417Z,1005.38
2019-02-07T07:44:57.388Z,1005.37
2019-02-07T07:45:57.371Z,1005.39
2019-02-07T07:46:57.350Z,1005.40
2019-02-07T07:47:57.341Z,1005.33
2019-02-07T07:48:57.303Z,1005.37
2019-02-07T07:49:57.284Z,1005.35
2019-02-07T07:50:57.261Z,1005.33
2019-02-07T07:51:57.260Z,1005.39
2019-02-07T07:52:57.221Z,1005.33
2019-02-07T07:53:57.198Z,1005.39
2019-02-07T07:54:57.177Z,1005.34
2019-02-07T07:55:57.156Z,1005.36
2019-02-07T07:56:57.136Z,1005.31
2019-02-07T07:57:57.134Z,1005.36
2019-02-07T07:58:57.092Z,1005.38
2019-02-07T07:59:57.076Z,1005.39
2019-02-07T08:00:57.057Z,1005.46
2019-02-07T08:01:57.031Z,1005.40
2019-02-07T08:02:57.011Z,1005.43
2019-02-07T08:03:57.007Z,1005.48
2019-02-07T08:04:56.967Z,1005.44
2019-02-07T08:05:56.958Z,1005.44
2019-02-07T08:06:56.931Z,1005.46
2019-02-07T08:07:56.919Z,1005.47
2019-02-07T08:08:56.904Z,1005.53
2019-02-07T08:09:56.864Z,1005.50
2019-02-07T08:10:56.872Z,1005.53
2019-02-07T08:11:56.833Z,1005.55
2019-02-07T08:12:56.801Z,1005.58
2019-02-07T08:13:56.786Z,1005.57
2019-02-07T08:14:56.760Z,1005.50
2019-02-07T08:15:56.733Z,1005.63
2019-02-07T08:16:59.113Z,1005.64
2019-02-07T08:17:56.699Z,1005.67
2019-02-07T08:18:56.681Z,1005.63
2019-02-07T08:19:56.656Z,1005.73
2019-02-07T08:20:56.645Z,1005.64
2019-02-07T08:21:56.631Z,1005.75
2019-02-07T08:22:56.592Z,1005.85
2019-02-07T08:23:56.594Z,1005.75
2019-02-07T08:24:56.554Z,1005.91
2019-02-07T08:25:56.556Z,1005.87
2019-02-07T08:26:56.529Z,1005.84
2019-02-07T08:27:56.489Z,1005.97
2019-02-07T08:28:56.472Z,1005.84
2019-02-07T08:29:56.452Z,1005.88
2019-02-07T08:32:38.667Z,1005.86
2019-02-07T08:33:39.241Z,1005.88
2019-02-07T08:34:38.638Z,1005.88
2019-02-07T08:35:38.870Z,1005.93
2019-02-07T08:36:38.566Z,1005.83
2019-02-07T08:37:38.568Z,1005.91
2019-02-07T08:38:38.527Z,1005.93
2019-02-07T08:39:38.503Z,1005.98
2019-02-07T08:40:38.517Z,1005.95
2019-02-07T08:41:38.472Z,1006.02
2019-02-07T08:42:38.450Z,1006.06
2019-02-07T08:43:38.433Z,1006.10
2019-02-07T08:44:38.402Z,1006.05
2019-02-07T08:45:38.394Z,1006.11
2019-02-07T08:46:38.380Z,1006.19
2019-02-07T08:47:38.375Z,1006.20
2019-02-07T08:48:38.345Z,1006.15
2019-02-07T08:49:38.309Z,1006.08
2019-02-07T08:50:38.287Z,1006.16
2019-02-07T08:51:38.293Z,1006.06
2019-02-07T08:52:38.239Z,1006.23
2019-02-07T08:53:38.223Z,1006.23
2019-02-07T08:54:38.203Z,1006.24
2019-02-07T08:55:38.192Z,1006.15
2019-02-07T08:56:38.168Z,1006.09
2019-02-07T08:57:38.171Z,1006.08
2019-02-07T08:58:38.124Z,1006.18
2019-02-07T08:59:38.102Z,1006.21
2019-02-07T09:00:38.085Z,1006.24
2019-02-07T09:01:38.116Z,1006.24
2019-02-07T09:02:38.045Z,1006.24
2019-02-07T09:03:38.041Z,1006.27
2019-02-07T09:04:38.004Z,1006.25
2019-02-07T09:05:37.986Z,1006.23
2019-02-07T09:06:37.966Z,1006.21
2019-02-07T09:07:37.958Z,1006.28
2019-02-07T09:08:37.940Z,1006.26
2019-02-07T09:09:37.916Z,1006.25
2019-02-07T09:10:37.881Z,1006.25
2019-02-07T09:11:37.865Z,1006.24
2019-02-07T09:12:37.859Z,1006.31
2019-02-07T09:13:37.823Z,1006.27
2019-02-07T09:14:37.831Z,1006.27
2019-02-07T09:15:37.788Z,1006.26
2019-02-07T09:16:37.768Z,1006.33
2019-02-07T09:17:37.760Z,1006.28
2019-02-07T09:18:37.733Z,1006.26
2019-02-07T09:19:37.709Z,1006.30
2019-02-07T09:20:37.710Z,1006.27
2019-02-07T09:21:37.686Z,1006.31
2019-02-07T09:22:37.652Z,1006.40
2019-02-07T09:23:37.628Z,1006.31
2019-02-07T09:24:37.608Z,1006.33
2019-02-07T09:25:37.592Z,1006.36
2019-02-07T09:26:37.589Z,1006.48
2019-02-07T09:27:37.552Z,1006.35
2019-02-07T09:28:37.534Z,1006.25
2019-02-07T09:29:37.514Z,1006.35
2019-02-07T09:30:37.495Z,1006.40
2019-02-07T09:31:37.472Z,1006.43
2019-02-07T09:32:37.474Z,1006.44
2019-02-07T09:33:37.432Z,1006.42
2019-02-07T09:34:37.418Z,1006.38
2019-02-07T09:35:37.396Z,1006.42
2019-02-07T09:36:37.379Z,1006.43
2019-02-07T09:37:37.358Z,1006.44
2019-02-07T09:38:37.346Z,1006.48
2019-02-07T09:39:37.317Z,1006.33
2019-02-07T09:40:37.295Z,1006.44
2019-02-07T09:41:37.276Z,1006.42
2019-02-07T09:42:37.271Z,1006.44
2019-02-07T09:43:37.254Z,1006.50
2019-02-07T09:44:37.219Z,1006.56
2019-02-07T09:45:37.193Z,1006.58
2019-02-07T09:46:37.173Z,1006.51
2019-02-07T09:47:37.158Z,1006.58
2019-02-07T09:48:37.138Z,1006.63
2019-02-07T09:49:37.134Z,1006.60
2019-02-07T09:50:37.093Z,1006.67
2019-02-07T09:51:37.080Z,1006.63
2019-02-07T09:52:37.058Z,1006.66
2019-02-07T09:53:37.036Z,1006.45
2019-02-07T09:54:37.034Z,1006.72
2019-02-07T09:55:36.998Z,1006.68
2019-02-07T09:56:36.980Z,1006.69
2019-02-07T09:57:36.957Z,1006.74
2019-02-07T09:58:36.938Z,1006.78
2019-02-07T09:59:36.920Z,1006.75
2019-02-07T10:00:36.919Z,1006.73
2019-02-07T10:01:36.880Z,1006.78
2019-02-07T10:02:36.861Z,1006.66
2019-02-07T10:03:36.834Z,1006.71
2019-02-07T10:04:36.817Z,1006.71
2019-02-07T10:05:36.800Z,1006.69
2019-02-07T10:06:36.795Z,1006.74
2019-02-07T10:07:36.766Z,1006.64
2019-02-07T10:08:36.742Z,1006.72
2019-02-07T10:09:36.725Z,1006.69
2019-02-07T10:10:36.706Z,1006.80
2019-02-07T10:11:36.709Z,1006.83
2019-02-07T10:12:36.665Z,1006.87
2019-02-07T10:13:36.643Z,1006.88
2019-02-07T10:14:36.623Z,1007.00
2019-02-07T10:15:36.607Z,1006.91
2019-02-07T10:16:36.593Z,1006.99
2019-02-07T10:17:36.585Z,1006.95
2019-02-07T10:18:36.547Z,1006.96
2019-02-07T10:19:36.531Z,1006.90
2019-02-07T10:20:37.426Z,1006.90
2019-02-07T10:21:36.497Z,1006.98
2019-02-07T10:22:36.475Z,1006.92
2019-02-07T10:23:36.483Z,1006.93
2019-02-07T10:24:36.437Z,1006.85
2019-02-07T10:25:36.424Z,1006.83
2019-02-07T10:26:36.419Z,1006.90
2019-02-07T10:27:36.385Z,1006.87
2019-02-07T10:28:36.372Z,1006.89
2019-02-07T10:29:36.372Z,1006.97
2019-02-07T10:30:36.320Z,1006.90
2019-02-07T10:31:36.305Z,1006.93
2019-02-07T10:32:36.290Z,1007.05
2019-02-07T10:33:36.269Z,1006.91
2019-02-07T10:34:36.257Z,1006.98
2019-02-07T10:35:36.244Z,1006.91
2019-02-07T10:36:36.230Z,1006.95
2019-02-07T10:37:36.194Z,1007.04
2019-02-07T10:38:36.174Z,1006.99
2019-02-07T10:39:36.159Z,1006.99
2019-02-07T10:40:36.139Z,1006.93
2019-02-07T10:41:36.144Z,1006.93
2019-02-07T10:42:36.104Z,1006.95
2019-02-07T10:43:36.083Z,1006.90
2019-02-07T10:44:36.077Z,1006.94
2019-02-07T10:45:36.061Z,1006.97
2019-02-07T10:46:36.046Z,1007.06
2019-02-07T10:47:36.020Z,1007.11
2019-02-07T10:48:44.168Z,1007.03
2019-02-07T10:49:35.969Z,1006.88
2019-02-07T10:50:35.954Z,1006.85
2019-02-07T10:51:35.958Z,1006.91
2019-02-07T10:52:35.937Z,1006.90
2019-02-07T10:53:35.895Z,1006.94
2019-02-07T10:54:35.882Z,1006.95
2019-02-07T10:55:35.862Z,1006.96
2019-02-07T10:56:35.844Z,1006.92
2019-02-07T10:57:35.823Z,1006.93
2019-02-07T10:58:35.819Z,1006.88
2019-02-07T10:59:35.811Z,1006.83
2019-02-07T11:00:35.767Z,1006.85
2019-02-07T11:01:35.752Z,1006.70
2019-02-07T11:02:35.733Z,1006.80
2019-02-07T11:03:35.755Z,1006.83
2019-02-07T11:04:35.693Z,1006.87
2019-02-07T11:05:35.738Z,1006.86
2019-02-07T11:06:35.746Z,1006.84
2019-02-07T11:07:35.749Z,1006.80
2019-02-07T11:08:35.788Z,1006.78
2019-02-07T11:09:35.691Z,1006.84
2019-02-07T11:10:35.763Z,1006.79
2019-02-07T11:11:35.728Z,1006.75
2019-02-07T11:12:35.734Z,1006.78
2019-02-07T11:13:35.547Z,1006.69
2019-02-07T11:14:35.515Z,1006.82
2019-02-07T11:15:35.523Z,1006.78
2019-02-07T11:16:35.482Z,1006.74
2019-02-07T11:17:35.462Z,1006.72
2019-02-07T11:18:35.438Z,1006.79
2019-02-07T11:19:35.427Z,1006.81
2019-02-07T11:20:35.408Z,1006.78
2019-02-07T11:21:35.427Z,1006.71
2019-02-07T11:22:35.382Z,1006.71
2019-02-07T11:23:35.355Z,1006.75
2019-02-07T11:24:35.340Z,1006.77
2019-02-07T11:25:35.315Z,1006.76
2019-02-07T11:26:35.354Z,1006.84
2019-02-07T11:27:35.285Z,1006.71
2019-02-07T11:28:35.268Z,1006.71
2019-02-07T11:29:35.251Z,1006.75
2019-02-07T11:30:35.234Z,1006.76
2019-02-07T11:31:35.248Z,1006.79
2019-02-07T11:32:35.198Z,1006.75
2019-02-07T11:33:35.182Z,1006.72
2019-02-07T11:34:35.164Z,1006.68
2019-02-07T11:35:35.145Z,1006.72
2019-02-07T11:36:35.128Z,1006.73
2019-02-07T11:37:35.134Z,1006.74
2019-02-07T11:38:35.139Z,1006.70
2019-02-07T11:39:35.078Z,1006.76
2019-02-07T11:40:35.720Z,1006.69
2019-02-07T11:41:35.043Z,1006.78
2019-02-07T11:42:35.034Z,1006.74
2019-02-07T11:43:35.023Z,1006.73
2019-02-07T11:44:34.990Z,1006.67
2019-02-07T11:45:34.977Z,1006.66
2019-02-07T11:46:37.631Z,1006.57
2019-02-07T11:47:34.961Z,1006.59
2019-02-07T11:48:34.940Z,1006.69
2019-02-07T11:49:34.906Z,1006.52
2019-02-07T11:50:34.886Z,1006.58
2019-02-07T11:51:34.880Z,1006.65
2019-02-07T11:52:34.869Z,1006.69
2019-02-07T11:53:34.840Z,1006.64
2019-02-07T11:54:34.826Z,1006.66
2019-02-07T11:55:34.800Z,1006.51
2019-02-07T11:56:34.796Z,1006.62
2019-02-07T11:57:34.769Z,1006.51
2019-02-07T11:58:34.781Z,1006.57
2019-02-07T11:59:34.739Z,1006.55
2019-02-07T12:00:34.723Z,1006.57
2019-02-07T12:01:34.706Z,1006.58
2019-02-07T12:02:34.697Z,1006.75
2019-02-07T12:03:34.670Z,1006.67
2019-02-07T12:04:34.682Z,1006.54
2019-02-07T12:05:34.635Z,1006.68
2019-02-07T12:06:34.623Z,1006.59
2019-02-07T12:07:34.607Z,1006.63
2019-02-07T12:08:34.590Z,1006.51
2019-02-07T12:09:34.588Z,1006.50
2019-02-07T12:10:34.561Z,1006.51